sensor_id;sensor_type;location;lat;lon;timestamp;pressure;altitude;pressure_sealevel;temperature;humidity
41712;BME280;27399;51.516;13.670;2023-04-06T00:01:27;101024.38;;;3.60;72.62
41712;BME280;27399;51.516;13.670;2023-04-06T00:03:53;101023.59;;;3.64;72.57
41712;BME280;27399;51.516;13.670;2023-04-06T00:06:18;101015.31;;;3.51;73.05
41712;BME280;27399;51.516;13.670;2023-04-06T00:08:45;101023.22;;;3.51;73.28
41712;BME280;27399;51.516;13.670;2023-04-06T00:11:10;101017.16;;;3.54;73.25
41712;BME280;27399;51.516;13.670;2023-04-06T00:13:36;101026.91;;;3.56;72.89
41712;BME280;27399;51.516;13.670;2023-04-06T00:16:02;101019.97;;;3.60;72.62
41712;BME280;27399;51.516;13.670;2023-04-06T00:18:28;101020.84;;;3.61;72.55
41712;BME280;27399;51.516;13.670;2023-04-06T00:20:54;101023.16;;;3.48;72.88
41712;BME280;27399;51.516;13.670;2023-04-06T00:23:19;101022.47;;;3.55;72.64
41712;BME280;27399;51.516;13.670;2023-04-06T00:25:45;101016.47;;;3.61;72.35
41712;BME280;27399;51.516;13.670;2023-04-06T00:28:11;101022.34;;;3.51;72.71
41712;BME280;27399;51.516;13.670;2023-04-06T00:30:36;101018.78;;;3.50;72.82
41712;BME280;27399;51.516;13.670;2023-04-06T00:33:02;101015.22;;;3.48;72.70
41712;BME280;27399;51.516;13.670;2023-04-06T00:35:28;101014.31;;;3.48;72.90
41712;BME280;27399;51.516;13.670;2023-04-06T00:37:53;101022.84;;;3.39;72.84
41712;BME280;27399;51.516;13.670;2023-04-06T00:40:19;101021.72;;;3.31;72.90
41712;BME280;27399;51.516;13.670;2023-04-06T00:42:45;101017.56;;;3.39;72.91
41712;BME280;27399;51.516;13.670;2023-04-06T00:45:11;101012.28;;;3.39;72.91
41712;BME280;27399;51.516;13.670;2023-04-06T00:47:36;101008.66;;;3.35;73.07
41712;BME280;27399;51.516;13.670;2023-04-06T00:50:02;101014.84;;;3.36;73.14
41712;BME280;27399;51.516;13.670;2023-04-06T00:52:28;101017.38;;;3.33;73.11
41712;BME280;27399;51.516;13.670;2023-04-06T00:54:54;101019.44;;;3.41;73.16
41712;BME280;27399;51.516;13.670;2023-04-06T00:57:20;101012.25;;;3.37;72.82
41712;BME280;27399;51.516;13.670;2023-04-06T00:59:46;101012.25;;;3.37;73.00
41712;BME280;27399;51.516;13.670;2023-04-06T01:02:12;101006.75;;;3.30;73.06
41712;BME280;27399;51.516;13.670;2023-04-06T01:04:38;101008.75;;;3.37;72.81
41712;BME280;27399;51.516;13.670;2023-04-06T01:07:04;101012.41;;;3.42;72.94
41712;BME280;27399;51.516;13.670;2023-04-06T01:09:30;101015.94;;;3.43;72.55
41712;BME280;27399;51.516;13.670;2023-04-06T01:11:57;101011.56;;;3.43;72.26
41712;BME280;27399;51.516;13.670;2023-04-06T01:14:24;100991.03;;;3.33;72.47
41712;BME280;27399;51.516;13.670;2023-04-06T01:16:49;101014.59;;;3.27;72.79
41712;BME280;27399;51.516;13.670;2023-04-06T01:19:15;101011.28;;;3.34;72.67
41712;BME280;27399;51.516;13.670;2023-04-06T01:21:41;100998.94;;;3.33;72.64
41712;BME280;27399;51.516;13.670;2023-04-06T01:24:08;101008.47;;;3.28;72.99
41712;BME280;27399;51.516;13.670;2023-04-06T01:26:34;101009.03;;;3.17;73.12
41712;BME280;27399;51.516;13.670;2023-04-06T01:29:01;101007.13;;;3.13;73.49
41712;BME280;27399;51.516;13.670;2023-04-06T01:31:27;100937.59;;;2.81;73.29
41712;BME280;27399;51.516;13.670;2023-04-06T01:33:54;100999.59;;;3.25;72.96
41712;BME280;27399;51.516;13.670;2023-04-06T01:36:20;101006.59;;;3.25;72.72
41712;BME280;27399;51.516;13.670;2023-04-06T01:38:45;101002.41;;;3.32;72.63
41712;BME280;27399;51.516;13.670;2023-04-06T01:41:11;100996.72;;;3.47;72.16
41712;BME280;27399;51.516;13.670;2023-04-06T01:43:37;100993.94;;;3.42;72.20
41712;BME280;27399;51.516;13.670;2023-04-06T01:46:03;101000.81;;;3.37;72.17
41712;BME280;27399;51.516;13.670;2023-04-06T01:48:28;100995.91;;;3.20;72.63
41712;BME280;27399;51.516;13.670;2023-04-06T01:50:54;100987.00;;;3.15;72.55
41712;BME280;27399;51.516;13.670;2023-04-06T01:53:21;100992.41;;;3.20;72.70
41712;BME280;27399;51.516;13.670;2023-04-06T01:55:47;100987.56;;;3.05;72.94
41712;BME280;27399;51.516;13.670;2023-04-06T01:58:12;100989.41;;;3.09;72.70
41712;BME280;27399;51.516;13.670;2023-04-06T02:00:38;100993.84;;;3.10;72.54
41712;BME280;27399;51.516;13.670;2023-04-06T02:03:04;100993.41;;;2.96;72.91
41712;BME280;27399;51.516;13.670;2023-04-06T02:05:31;100991.03;;;3.04;73.16
41712;BME280;27399;51.516;13.670;2023-04-06T02:07:58;100995.94;;;2.93;73.03
41712;BME280;27399;51.516;13.670;2023-04-06T02:10:24;100995.88;;;2.90;73.35
41712;BME280;27399;51.516;13.670;2023-04-06T02:12:49;100997.41;;;2.83;73.54
41712;BME280;27399;51.516;13.670;2023-04-06T02:15:15;100995.72;;;2.85;73.17
41712;BME280;27399;51.516;13.670;2023-04-06T02:17:41;100995.78;;;2.88;73.14
41712;BME280;27399;51.516;13.670;2023-04-06T02:20:08;100991.84;;;2.74;73.42
41712;BME280;27399;51.516;13.670;2023-04-06T02:22:34;100996.50;;;2.83;73.59
41712;BME280;27399;51.516;13.670;2023-04-06T02:25:00;100991.31;;;2.84;73.61
41712;BME280;27399;51.516;13.670;2023-04-06T02:27:26;100985.47;;;2.94;72.92
41712;BME280;27399;51.516;13.670;2023-04-06T02:29:52;100987.00;;;2.88;73.19
41712;BME280;27399;51.516;13.670;2023-04-06T02:32:17;100983.84;;;3.00;72.59
41712;BME280;27399;51.516;13.670;2023-04-06T02:34:43;100986.31;;;2.93;72.52
41712;BME280;27399;51.516;13.670;2023-04-06T02:37:09;100984.38;;;2.88;73.00
41712;BME280;27399;51.516;13.670;2023-04-06T02:39:34;100983.97;;;3.03;72.51
41712;BME280;27399;51.516;13.670;2023-04-06T02:42:00;100978.19;;;2.87;73.08
41712;BME280;27399;51.516;13.670;2023-04-06T02:44:26;100982.13;;;3.00;72.64
41712;BME280;27399;51.516;13.670;2023-04-06T02:46:51;100989.13;;;3.00;72.74
41712;BME280;27399;51.516;13.670;2023-04-06T02:49:17;100984.69;;;2.99;72.60
41712;BME280;27399;51.516;13.670;2023-04-06T02:51:43;100989.25;;;3.03;72.54
41712;BME280;27399;51.516;13.670;2023-04-06T02:54:08;100978.28;;;2.89;72.83
41712;BME280;27399;51.516;13.670;2023-04-06T02:56:34;100982.03;;;2.97;72.45
41712;BME280;27399;51.516;13.670;2023-04-06T02:59:00;100982.78;;;2.93;72.52
41712;BME280;27399;51.516;13.670;2023-04-06T03:01:26;100987.16;;;2.92;72.50
41712;BME280;27399;51.516;13.670;2023-04-06T03:03:52;100980.00;;;2.88;72.48
41712;BME280;27399;51.516;13.670;2023-04-06T03:06:17;100975.41;;;2.83;72.50
41712;BME280;27399;51.516;13.670;2023-04-06T03:08:43;100979.38;;;2.96;72.27
41712;BME280;27399;51.516;13.670;2023-04-06T03:11:08;100983.44;;;2.86;72.36
41712;BME280;27399;51.516;13.670;2023-04-06T03:13:36;100981.63;;;2.85;72.56
41712;BME280;27399;51.516;13.670;2023-04-06T03:16:04;100984.16;;;2.82;72.37
41712;BME280;27399;51.516;13.670;2023-04-06T03:18:31;100986.56;;;2.74;72.65
41712;BME280;27399;51.516;13.670;2023-04-06T03:20:56;100990.69;;;2.66;72.85
41712;BME280;27399;51.516;13.670;2023-04-06T03:23:22;100991.72;;;2.71;72.51
41712;BME280;27399;51.516;13.670;2023-04-06T03:25:48;100997.00;;;2.71;72.46
41712;BME280;27399;51.516;13.670;2023-04-06T03:28:14;100987.66;;;2.53;73.41
41712;BME280;27399;51.516;13.670;2023-04-06T03:30:40;100992.81;;;2.50;73.61
41712;BME280;27399;51.516;13.670;2023-04-06T03:33:05;100986.63;;;2.50;73.66
41712;BME280;27399;51.516;13.670;2023-04-06T03:35:31;100991.97;;;2.51;73.86
41712;BME280;27399;51.516;13.670;2023-04-06T03:37:57;100976.59;;;2.38;73.74
41712;BME280;27399;51.516;13.670;2023-04-06T03:40:22;100998.38;;;2.59;73.32
41712;BME280;27399;51.516;13.670;2023-04-06T03:42:48;100998.19;;;2.53;73.34
41712;BME280;27399;51.516;13.670;2023-04-06T03:45:14;100996.41;;;2.52;73.16
41712;BME280;27399;51.516;13.670;2023-04-06T03:47:40;101005.56;;;2.38;73.21
41712;BME280;27399;51.516;13.670;2023-04-06T03:50:06;100994.84;;;2.31;73.47
41712;BME280;27399;51.516;13.670;2023-04-06T03:52:32;101001.13;;;2.37;73.30
41712;BME280;27399;51.516;13.670;2023-04-06T03:54:57;101009.06;;;2.38;73.45
41712;BME280;27399;51.516;13.670;2023-04-06T03:57:23;101007.50;;;2.43;72.99
41712;BME280;27399;51.516;13.670;2023-04-06T03:59:49;101015.09;;;2.34;73.42
41712;BME280;27399;51.516;13.670;2023-04-06T04:02:14;101010.97;;;2.42;73.17
41712;BME280;27399;51.516;13.670;2023-04-06T04:04:40;101012.88;;;2.46;73.00
41712;BME280;27399;51.516;13.670;2023-04-06T04:07:06;101021.63;;;2.45;72.83
41712;BME280;27399;51.516;13.670;2023-04-06T04:09:31;100997.66;;;2.38;72.85
41712;BME280;27399;51.516;13.670;2023-04-06T04:11:57;101012.19;;;2.52;72.60
41712;BME280;27399;51.516;13.670;2023-04-06T04:14:23;101010.28;;;2.48;72.41
41712;BME280;27399;51.516;13.670;2023-04-06T04:16:48;101011.69;;;2.38;72.74
41712;BME280;27399;51.516;13.670;2023-04-06T04:19:14;101021.41;;;2.39;72.87
41712;BME280;27399;51.516;13.670;2023-04-06T04:21:44;101011.00;;;2.44;72.72
41712;BME280;27399;51.516;13.670;2023-04-06T04:24:11;101013.56;;;2.41;72.65
41712;BME280;27399;51.516;13.670;2023-04-06T04:26:37;101009.78;;;2.32;72.92
41712;BME280;27399;51.516;13.670;2023-04-06T04:29:03;101012.16;;;2.25;72.63
41712;BME280;27399;51.516;13.670;2023-04-06T04:31:28;101011.00;;;2.44;72.40
41712;BME280;27399;51.516;13.670;2023-04-06T04:33:55;101011.28;;;2.52;72.51
41712;BME280;27399;51.516;13.670;2023-04-06T04:36:20;101010.28;;;2.48;72.53
41712;BME280;27399;51.516;13.670;2023-04-06T04:38:46;101012.50;;;2.36;72.54
41712;BME280;27399;51.516;13.670;2023-04-06T04:41:12;101012.31;;;2.29;72.15
41712;BME280;27399;51.516;13.670;2023-04-06T04:43:37;101010.72;;;2.35;72.24
41712;BME280;27399;51.516;13.670;2023-04-06T04:46:04;101007.75;;;2.25;72.42
41712;BME280;27399;51.516;13.670;2023-04-06T04:48:30;101006.41;;;2.37;72.35
41712;BME280;27399;51.516;13.670;2023-04-06T04:50:56;101008.84;;;2.30;72.61
41712;BME280;27399;51.516;13.670;2023-04-06T04:53:21;101008.84;;;2.30;72.43
41712;BME280;27399;51.516;13.670;2023-04-06T04:55:47;101016.41;;;2.21;72.62
41712;BME280;27399;51.516;13.670;2023-04-06T04:58:13;101015.22;;;2.37;72.34
41712;BME280;27399;51.516;13.670;2023-04-06T05:00:42;101013.13;;;2.28;72.52
41712;BME280;27399;51.516;13.670;2023-04-06T05:03:09;101012.78;;;2.43;72.09
41712;BME280;27399;51.516;13.670;2023-04-06T05:05:38;101012.72;;;2.16;72.55
41712;BME280;27399;51.516;13.670;2023-04-06T05:08:04;101016.28;;;2.18;72.54
41712;BME280;27399;51.516;13.670;2023-04-06T05:10:29;101019.97;;;2.23;73.00
41712;BME280;27399;51.516;13.670;2023-04-06T05:12:55;101018.41;;;2.28;73.10
41712;BME280;27399;51.516;13.670;2023-04-06T05:15:21;101023.78;;;2.31;72.92
41712;BME280;27399;51.516;13.670;2023-04-06T05:17:46;101023.00;;;2.34;72.92
41712;BME280;27399;51.516;13.670;2023-04-06T05:20:12;101026.50;;;2.35;72.98
41712;BME280;27399;51.516;13.670;2023-04-06T05:22:38;101026.56;;;2.36;72.82
41712;BME280;27399;51.516;13.670;2023-04-06T05:25:04;101029.06;;;2.31;73.27
41712;BME280;27399;51.516;13.670;2023-04-06T05:27:29;101031.72;;;2.33;73.30
41712;BME280;27399;51.516;13.670;2023-04-06T05:29:55;101032.28;;;2.24;73.89
41712;BME280;27399;51.516;13.670;2023-04-06T05:32:21;101038.06;;;2.14;74.16
41712;BME280;27399;51.516;13.670;2023-04-06T05:34:49;101036.44;;;2.17;74.45
41712;BME280;27399;51.516;13.670;2023-04-06T05:37:17;101037.88;;;2.33;74.32
41712;BME280;27399;51.516;13.670;2023-04-06T05:39:43;101045.56;;;2.27;74.08
41712;BME280;27399;51.516;13.670;2023-04-06T05:42:09;101046.00;;;2.40;73.95
41712;BME280;27399;51.516;13.670;2023-04-06T05:44:37;101043.38;;;2.40;74.28
41712;BME280;27399;51.516;13.670;2023-04-06T05:47:02;101038.56;;;2.28;75.00
41712;BME280;27399;51.516;13.670;2023-04-06T05:49:28;101038.66;;;2.31;75.58
41712;BME280;27399;51.516;13.670;2023-04-06T05:51:54;101047.69;;;2.38;75.47
41712;BME280;27399;51.516;13.670;2023-04-06T05:54:20;101042.63;;;2.44;75.29
41712;BME280;27399;51.516;13.670;2023-04-06T05:56:46;101045.78;;;2.59;74.98
41712;BME280;27399;51.516;13.670;2023-04-06T05:59:12;101042.03;;;2.53;75.43
41712;BME280;27399;51.516;13.670;2023-04-06T06:01:37;101045.91;;;2.62;75.30
41712;BME280;27399;51.516;13.670;2023-04-06T06:04:03;101044.16;;;2.63;75.76
41712;BME280;27399;51.516;13.670;2023-04-06T06:06:29;101047.78;;;2.67;76.30
41712;BME280;27399;51.516;13.670;2023-04-06T06:08:58;101046.06;;;2.67;76.27
41712;BME280;27399;51.516;13.670;2023-04-06T06:11:26;101049.00;;;2.76;76.75
41712;BME280;27399;51.516;13.670;2023-04-06T06:13:52;101050.13;;;2.85;76.31
41712;BME280;27399;51.516;13.670;2023-04-06T06:16:18;101044.91;;;2.86;77.31
41712;BME280;27399;51.516;13.670;2023-04-06T06:18:44;101034.28;;;2.83;77.10
41712;BME280;27399;51.516;13.670;2023-04-06T06:21:10;101047.31;;;3.06;76.96
41712;BME280;27399;51.516;13.670;2023-04-06T06:23:38;101043.50;;;3.25;76.46
41712;BME280;27399;51.516;13.670;2023-04-06T06:26:04;101047.75;;;3.20;77.36
41712;BME280;27399;51.516;13.670;2023-04-06T06:28:30;101050.44;;;3.50;76.04
41712;BME280;27399;51.516;13.670;2023-04-06T06:30:56;101050.75;;;3.60;75.75
41712;BME280;27399;51.516;13.670;2023-04-06T06:33:22;101045.28;;;3.55;76.19
41712;BME280;27399;51.516;13.670;2023-04-06T06:35:48;101056.34;;;3.72;75.86
41712;BME280;27399;51.516;13.670;2023-04-06T06:38:13;101051.31;;;3.80;75.58
41712;BME280;27399;51.516;13.670;2023-04-06T06:40:40;101051.44;;;3.84;76.26
41712;BME280;27399;51.516;13.670;2023-04-06T06:43:06;101053.81;;;4.06;74.73
41712;BME280;27399;51.516;13.670;2023-04-06T06:45:32;101055.88;;;4.16;74.62
41712;BME280;27399;51.516;13.670;2023-04-06T06:47:58;101052.28;;;4.14;73.94
41712;BME280;27399;51.516;13.670;2023-04-06T06:50:24;101049.06;;;4.26;73.06
41712;BME280;27399;51.516;13.670;2023-04-06T06:52:50;101054.53;;;4.32;72.45
41712;BME280;27399;51.516;13.670;2023-04-06T06:55:16;101058.25;;;4.39;72.42
41712;BME280;27399;51.516;13.670;2023-04-06T06:57:44;101055.91;;;4.51;73.04
41712;BME280;27399;51.516;13.670;2023-04-06T07:00:12;101063.97;;;4.56;72.33
41712;BME280;27399;51.516;13.670;2023-04-06T07:02:39;101060.06;;;4.75;72.21
41712;BME280;27399;51.516;13.670;2023-04-06T07:05:05;101067.47;;;4.90;72.06
41712;BME280;27399;51.516;13.670;2023-04-06T07:07:33;101065.63;;;4.86;71.38
41712;BME280;27399;51.516;13.670;2023-04-06T07:10:00;101066.31;;;4.78;70.95
41712;BME280;27399;51.516;13.670;2023-04-06T07:12:26;101067.06;;;5.09;70.95
41712;BME280;27399;51.516;13.670;2023-04-06T07:14:52;101064.44;;;5.09;71.34
41712;BME280;27399;51.516;13.670;2023-04-06T07:24:02;101055.66;;;5.49;68.88
41712;BME280;27399;51.516;13.670;2023-04-06T07:26:28;101057.66;;;5.59;68.07
41712;BME280;27399;51.516;13.670;2023-04-06T07:28:53;101051.78;;;5.74;67.29
41712;BME280;27399;51.516;13.670;2023-04-06T07:31:20;101051.78;;;5.74;66.82
41712;BME280;27399;51.516;13.670;2023-04-06T07:33:45;101053.13;;;5.96;66.11
41712;BME280;27399;51.516;13.670;2023-04-06T07:36:12;101032.88;;;5.98;65.99
41712;BME280;27399;51.516;13.670;2023-04-06T07:38:37;101047.53;;;6.24;66.50
41712;BME280;27399;51.516;13.670;2023-04-06T07:41:03;101050.38;;;6.34;65.59
41712;BME280;27399;51.516;13.670;2023-04-06T07:43:29;101048.88;;;6.49;65.53
41712;BME280;27399;51.516;13.670;2023-04-06T07:45:56;101052.75;;;6.66;65.71
41712;BME280;27399;51.516;13.670;2023-04-06T07:48:23;101052.91;;;6.76;63.48
41712;BME280;27399;51.516;13.670;2023-04-06T07:50:48;101033.50;;;6.80;62.45
41712;BME280;27399;51.516;13.670;2023-04-06T07:53:14;101048.03;;;7.04;62.33
41712;BME280;27399;51.516;13.670;2023-04-06T07:55:40;101048.09;;;7.07;61.88
41712;BME280;27399;51.516;13.670;2023-04-06T07:58:05;101043.88;;;7.21;61.55
41712;BME280;27399;51.516;13.670;2023-04-06T08:00:32;101047.38;;;7.19;60.61
41712;BME280;27399;51.516;13.670;2023-04-06T08:02:57;101041.53;;;7.43;60.50
41712;BME280;27399;51.516;13.670;2023-04-06T08:05:23;101048.72;;;7.49;61.33
41712;BME280;27399;51.516;13.670;2023-04-06T08:07:49;101043.44;;;7.52;60.07
41712;BME280;27399;51.516;13.670;2023-04-06T08:10:14;101041.72;;;7.57;59.88
41712;BME280;27399;51.516;13.670;2023-04-06T08:12:40;101045.66;;;7.85;60.64
41712;BME280;27399;51.516;13.670;2023-04-06T08:15:06;101041.38;;;7.97;60.71
41712;BME280;27399;51.516;13.670;2023-04-06T08:17:32;101038.75;;;8.01;60.25
41712;BME280;27399;51.516;13.670;2023-04-06T08:19:59;101045.91;;;8.05;59.41
41712;BME280;27399;51.516;13.670;2023-04-06T08:22:25;101030.88;;;8.07;59.59
41712;BME280;27399;51.516;13.670;2023-04-06T08:24:51;101035.28;;;8.07;57.75
41712;BME280;27399;51.516;13.670;2023-04-06T08:27:17;101040.69;;;8.15;58.07
41712;BME280;27399;51.516;13.670;2023-04-06T08:29:43;101039.09;;;8.29;57.78
41712;BME280;27399;51.516;13.670;2023-04-06T08:32:08;101035.66;;;8.40;57.78
41712;BME280;27399;51.516;13.670;2023-04-06T08:34:34;101033.13;;;8.49;58.10
41712;BME280;27399;51.516;13.670;2023-04-06T08:37:00;101045.38;;;8.39;55.82
41712;BME280;27399;51.516;13.670;2023-04-06T08:39:26;101039.31;;;8.49;54.79
41712;BME280;27399;51.516;13.670;2023-04-06T08:41:53;101046.66;;;8.78;56.83
41712;BME280;27399;51.516;13.670;2023-04-06T08:44:22;101033.41;;;8.81;57.05
41712;BME280;27399;51.516;13.670;2023-04-06T08:46:48;101037.09;;;8.97;56.61
41712;BME280;27399;51.516;13.670;2023-04-06T08:49:16;101037.13;;;9.01;55.69
41712;BME280;27399;51.516;13.670;2023-04-06T08:51:42;101046.03;;;9.07;53.72
41712;BME280;27399;51.516;13.670;2023-04-06T08:54:08;101034.59;;;9.21;54.28
41712;BME280;27399;51.516;13.670;2023-04-06T08:56:38;101029.41;;;9.42;54.50
41712;BME280;27399;51.516;13.670;2023-04-06T08:59:05;101026.00;;;9.62;53.57
41712;BME280;27399;51.516;13.670;2023-04-06T09:01:33;101028.66;;;9.68;51.60
41712;BME280;27399;51.516;13.670;2023-04-06T09:04:03;101036.75;;;9.84;53.06
41712;BME280;27399;51.516;13.670;2023-04-06T09:06:34;101025.28;;;10.13;52.70
41712;BME280;27399;51.516;13.670;2023-04-06T09:09:00;101029.72;;;10.07;50.22
41712;BME280;27399;51.516;13.670;2023-04-06T09:11:25;101031.56;;;10.33;50.96
41712;BME280;27399;51.516;13.670;2023-04-06T09:13:53;101038.75;;;10.53;50.78
41712;BME280;27399;51.516;13.670;2023-04-06T09:16:19;101026.31;;;10.69;50.17
41712;BME280;27399;51.516;13.670;2023-04-06T09:18:46;101020.97;;;10.74;49.46
41712;BME280;27399;51.516;13.670;2023-04-06T09:21:12;101025.41;;;11.12;50.11
41712;BME280;27399;51.516;13.670;2023-04-06T09:23:39;101015.59;;;11.26;49.98
41712;BME280;27399;51.516;13.670;2023-04-06T09:26:17;101027.13;;;11.55;48.82
41712;BME280;27399;51.516;13.670;2023-04-06T09:28:51;101031.56;;;11.63;47.22
41712;BME280;27399;51.516;13.670;2023-04-06T09:31:25;101025.28;;;11.71;46.33
41712;BME280;27399;51.516;13.670;2023-04-06T09:33:53;101024.34;;;11.78;46.13
41712;BME280;27399;51.516;13.670;2023-04-06T09:36:19;101020.00;;;11.54;45.24
41712;BME280;27399;51.516;13.670;2023-04-06T09:41:26;101012.00;;;11.46;46.13
41712;BME280;27399;51.516;13.670;2023-04-06T09:44:02;101010.31;;;11.11;46.05
41712;BME280;27399;51.516;13.670;2023-04-06T09:46:35;101001.41;;;10.99;47.17
41712;BME280;27399;51.516;13.670;2023-04-06T09:49:04;101012.09;;;10.93;46.07
41712;BME280;27399;51.516;13.670;2023-04-06T09:51:36;101010.28;;;10.97;47.73
41712;BME280;27399;51.516;13.670;2023-04-06T09:54:02;100996.97;;;10.92;47.25
41712;BME280;27399;51.516;13.670;2023-04-06T09:56:51;100999.63;;;10.86;49.00
41712;BME280;27399;51.516;13.670;2023-04-06T10:07:40;100997.75;;;10.11;45.83
41712;BME280;27399;51.516;13.670;2023-04-06T10:10:08;100985.34;;;10.22;46.81
41712;BME280;27399;51.516;13.670;2023-04-06T10:12:37;100995.13;;;10.31;45.55
41712;BME280;27399;51.516;13.670;2023-04-06T10:15:03;100998.66;;;10.33;47.73
41712;BME280;27399;51.516;13.670;2023-04-06T10:17:29;100998.69;;;10.36;48.76
41712;BME280;27399;51.516;13.670;2023-04-06T10:20:04;100996.91;;;10.33;48.83
41712;BME280;27399;51.516;13.670;2023-04-06T10:25:52;100994.22;;;10.27;48.46
41712;BME280;27399;51.516;13.670;2023-04-06T10:28:19;100992.47;;;10.26;48.11
41712;BME280;27399;51.516;13.670;2023-04-06T10:30:45;100988.91;;;10.33;48.80
41712;BME280;27399;51.516;13.670;2023-04-06T10:33:18;100989.81;;;10.31;47.95
41712;BME280;27399;51.516;13.670;2023-04-06T10:35:44;100987.19;;;10.40;49.59
41712;BME280;27399;51.516;13.670;2023-04-06T10:38:10;100985.38;;;10.37;49.68
41712;BME280;27399;51.516;13.670;2023-04-06T10:40:39;100981.78;;;10.32;47.43
41712;BME280;27399;51.516;13.670;2023-04-06T10:43:19;100978.31;;;10.60;48.28
41712;BME280;27399;51.516;13.670;2023-04-06T10:45:56;100981.88;;;10.66;48.39
41712;BME280;27399;51.516;13.670;2023-04-06T10:48:22;100979.19;;;10.68;47.29
41712;BME280;27399;51.516;13.670;2023-04-06T10:50:53;100972.94;;;10.83;47.82
41712;BME280;27399;51.516;13.670;2023-04-06T10:53:25;100967.59;;;10.95;46.57
41712;BME280;27399;51.516;13.670;2023-04-06T10:55:55;100967.63;;;10.94;45.32
41712;BME280;27399;51.516;13.670;2023-04-06T10:58:25;100963.13;;;11.13;45.48
41712;BME280;27399;51.516;13.670;2023-04-06T11:00:51;100971.09;;;11.22;46.18
41712;BME280;27399;51.516;13.670;2023-04-06T11:03:17;100965.81;;;10.97;43.82
41712;BME280;27399;51.516;13.670;2023-04-06T11:05:44;100960.41;;;11.22;44.67
41712;BME280;27399;51.516;13.670;2023-04-06T11:08:21;100958.59;;;11.40;45.00
41712;BME280;27399;51.516;13.670;2023-04-06T11:10:47;100961.19;;;11.58;46.75
41712;BME280;27399;51.516;13.670;2023-04-06T11:13:14;100956.66;;;11.79;47.63
41712;BME280;27399;51.516;13.670;2023-04-06T11:15:40;100956.56;;;11.96;45.61
41712;BME280;27399;51.516;13.670;2023-04-06T11:18:06;100958.38;;;11.99;44.75
41712;BME280;27399;51.516;13.670;2023-04-06T11:20:31;100951.91;;;12.31;45.58
41712;BME280;27399;51.516;13.670;2023-04-06T11:22:57;100952.88;;;12.23;44.66
41712;BME280;27399;51.516;13.670;2023-04-06T11:25:24;100956.22;;;12.52;45.29
41712;BME280;27399;51.516;13.670;2023-04-06T11:27:52;100955.25;;;12.62;44.07
41712;BME280;27399;51.516;13.670;2023-04-06T11:30:18;100952.72;;;12.44;42.27
41712;BME280;27399;51.516;13.670;2023-04-06T11:32:45;100953.47;;;12.61;43.88
41712;BME280;27399;51.516;13.670;2023-04-06T11:35:21;100945.44;;;12.60;44.79
41712;BME280;27399;51.516;13.670;2023-04-06T11:37:49;100951.66;;;12.65;44.77
41712;BME280;27399;51.516;13.670;2023-04-06T11:40:15;100952.78;;;12.36;44.17
41712;BME280;27399;51.516;13.670;2023-04-06T11:42:41;100949.13;;;12.45;44.50
41712;BME280;27399;51.516;13.670;2023-04-06T11:45:07;100943.91;;;12.32;44.44
41712;BME280;27399;51.516;13.670;2023-04-06T11:47:36;100939.44;;;12.31;45.87
41712;BME280;27399;51.516;13.670;2023-04-06T11:50:08;100953.81;;;12.12;43.98
41712;BME280;27399;51.516;13.670;2023-04-06T11:52:34;100942.31;;;12.02;43.80
41712;BME280;27399;51.516;13.670;2023-04-06T11:55:10;100940.56;;;11.99;45.00
41712;BME280;27399;51.516;13.670;2023-04-06T11:57:37;100935.19;;;12.01;44.32
41712;BME280;27399;51.516;13.670;2023-04-06T12:00:03;100936.06;;;12.01;44.78
41712;BME280;27399;51.516;13.670;2023-04-06T12:02:29;100937.06;;;11.77;43.49
41712;BME280;27399;51.516;13.670;2023-04-06T12:04:57;100934.28;;;11.97;44.53
41712;BME280;27399;51.516;13.670;2023-04-06T12:07:23;100936.09;;;11.92;44.17
41712;BME280;27399;51.516;13.670;2023-04-06T12:09:48;100931.72;;;11.83;45.38
41712;BME280;27399;51.516;13.670;2023-04-06T12:12:14;100934.41;;;11.78;44.92
41712;BME280;27399;51.516;13.670;2023-04-06T12:14:40;100930.84;;;11.75;45.52
41712;BME280;27399;51.516;13.670;2023-04-06T12:17:05;100924.59;;;11.82;44.55
41712;BME280;27399;51.516;13.670;2023-04-06T12:19:31;100929.94;;;11.76;44.72
41712;BME280;27399;51.516;13.670;2023-04-06T12:21:57;100921.03;;;11.77;45.72
41712;BME280;27399;51.516;13.670;2023-04-06T12:24:23;100930.88;;;11.69;44.77
41712;BME280;27399;51.516;13.670;2023-04-06T12:26:49;100921.03;;;11.77;45.12
41712;BME280;27399;51.516;13.670;2023-04-06T12:29:15;100923.69;;;11.77;44.86
41712;BME280;27399;51.516;13.670;2023-04-06T12:31:41;100916.50;;;11.88;45.76
41712;BME280;27399;51.516;13.670;2023-04-06T12:34:08;100914.81;;;11.75;45.35
41712;BME280;27399;51.516;13.670;2023-04-06T12:36:34;100912.94;;;11.89;45.00
41712;BME280;27399;51.516;13.670;2023-04-06T12:39:00;100912.97;;;11.82;44.42
41712;BME280;27399;51.516;13.670;2023-04-06T12:41:27;100905.81;;;11.99;45.67
41712;BME280;27399;51.516;13.670;2023-04-06T12:43:53;100911.19;;;11.90;45.00
41712;BME280;27399;51.516;13.670;2023-04-06T12:46:19;100904.00;;;11.92;45.08
41712;BME280;27399;51.516;13.670;2023-04-06T12:48:45;100901.31;;;11.97;45.00
41712;BME280;27399;51.516;13.670;2023-04-06T12:51:11;100895.97;;;11.95;44.59
41712;BME280;27399;51.516;13.670;2023-04-06T12:53:37;100896.06;;;11.84;44.41
41712;BME280;27399;51.516;13.670;2023-04-06T12:56:11;100893.38;;;11.89;44.68
41712;BME280;27399;51.516;13.670;2023-04-06T12:58:37;100890.63;;;11.97;44.97
41712;BME280;27399;51.516;13.670;2023-04-06T13:01:06;100891.53;;;11.94;44.35
41712;BME280;27399;51.516;13.670;2023-04-06T13:03:32;100887.03;;;12.08;44.69
41712;BME280;27399;51.516;13.670;2023-04-06T13:05:59;100883.38;;;12.17;44.68